Time;durP1;ratioP1;P1;durP2;ratioP2;P2;SDS_P1;SDS_P2;PMS_P1;PMS_P2;Temp;Humidity;BMP_temperature;BMP_pressure;BME280_temperature;BME280_humidity;BME280_pressure;Samples;Min_cycle;Max_cycle;Signal;HPM_P1;HPM_P2
2023/06/27 00:02:04;;;;;;;2.10;1.80;;;26.60;48.80;;;;;;5052457;28;20745;-68
2023/06/27 00:04:29;;;;;;;2.97;1.90;;;26.60;48.30;;;;;;5052337;28;20199;-68
2023/06/27 00:06:55;;;;;;;3.20;2.10;;;26.60;48.30;;;;;;5052269;28;20464;-68
2023/06/27 00:09:21;;;;;;;2.03;1.83;;;26.60;48.20;;;;;;5052303;28;20171;-68
2023/06/27 00:11:46;;;;;;;2.00;1.67;;;26.60;48.20;;;;;;5052240;28;20532;-68
2023/06/27 00:14:13;;;;;;;2.90;1.97;;;26.60;48.10;;;;;;5052210;28;20304;-68
2023/06/27 00:16:39;;;;;;;2.10;1.90;;;26.60;48.10;;;;;;5052072;28;20289;-68
2023/06/27 00:19:05;;;;;;;1.90;1.70;;;26.60;48.10;;;;;;5052012;28;20547;-68
2023/06/27 00:21:35;;;;;;;1.70;1.40;;;26.60;48.10;;;;;;5052153;28;20492;-68
2023/06/27 00:24:01;;;;;;;2.33;2.13;;;26.60;48.10;;;;;;5052070;28;20214;-68
2023/06/27 00:26:28;;;;;;;2.83;1.90;;;26.60;48.00;;;;;;5052045;28;20433;-68
2023/06/27 00:28:54;;;;;;;1.83;1.60;;;26.60;48.00;;;;;;5051982;28;20410;-68
2023/06/27 00:31:20;;;;;;;2.50;1.93;;;26.60;48.00;;;;;;5051931;28;20910;-68
2023/06/27 00:33:46;;;;;;;3.80;1.70;;;26.50;47.90;;;;;;5051976;28;20418;-68
2023/06/27 00:36:14;;;;;;;1.73;1.53;;;26.50;47.90;;;;;;5051763;28;20436;-68
2023/06/27 00:38:39;;;;;;;2.37;1.93;;;26.50;47.90;;;;;;5051631;28;20183;-67
2023/06/27 00:41:05;;;;;;;1.83;1.63;;;26.50;47.80;;;;;;5051751;28;20464;-67
2023/06/27 00:43:30;;;;;;;3.80;1.57;;;26.50;47.70;;;;;;5051865;28;20179;-67
2023/06/27 00:45:57;;;;;;;1.87;1.53;;;26.50;47.70;;;;;;5050437;28;20566;-67
2023/06/27 00:48:23;;;;;;;1.90;1.40;;;26.50;47.70;;;;;;5051819;28;20182;-67
2023/06/27 00:50:52;;;;;;;1.90;1.57;;;26.60;47.50;;;;;;5050282;28;20979;-67
2023/06/27 00:53:17;;;;;;;1.90;1.70;;;26.50;47.40;;;;;;5051724;28;20500;-67
2023/06/27 00:55:43;;;;;;;2.00;1.60;;;26.50;47.30;;;;;;5050482;28;20517;-67
2023/06/27 00:58:10;;;;;;;3.10;1.70;;;26.50;47.20;;;;;;5051963;28;20179;-67
2023/06/27 01:00:36;;;;;;;1.87;1.50;;;26.50;47.20;;;;;;5051878;28;20206;-67
2023/06/27 01:03:02;;;;;;;2.83;1.40;;;26.50;47.00;;;;;;5051628;28;20414;-68
2023/06/27 01:05:29;;;;;;;3.27;1.70;;;26.50;46.90;;;;;;5051504;28;20487;-68
2023/06/27 01:08:03;;;;;;;1.60;1.40;;;26.50;46.70;;;;;;5051649;28;20405;-67
2023/06/27 01:10:40;;;;;;;2.07;1.60;;;26.50;46.80;;;;;;5051623;28;20414;-68
2023/06/27 01:13:17;;;;;;;2.97;2.03;;;26.40;46.70;;;;;;5051864;28;20425;-68
2023/06/27 01:15:43;;;;;;;1.93;1.73;;;26.40;46.60;;;;;;5051510;28;20440;-68
2023/06/27 01:18:13;;;;;;;2.00;1.80;;;26.40;47.10;;;;;;5051671;28;20409;-68
2023/06/27 01:20:43;;;;;;;3.30;2.07;;;26.40;46.50;;;;;;5051727;28;20475;-69
2023/06/27 01:23:16;;;;;;;2.10;1.70;;;26.40;46.30;;;;;;5051465;28;20398;-68
2023/06/27 01:25:42;;;;;;;2.07;1.70;;;26.40;46.20;;;;;;5051324;28;20444;-68
2023/06/27 01:28:13;;;;;;;2.50;1.80;;;26.40;46.20;;;;;;5051649;28;20433;-68
2023/06/27 01:30:40;;;;;;;3.40;1.70;;;26.40;46.20;;;;;;5051431;28;20640;-68
2023/06/27 01:33:23;;;;;;;1.90;1.70;;;26.40;46.20;;;;;;5051406;28;20420;-69
2023/06/27 01:36:07;;;;;;;2.17;1.80;;;26.40;46.30;;;;;;5051279;28;20468;-68
2023/06/27 01:38:42;;;;;;;1.63;1.53;;;26.40;46.10;;;;;;5051333;28;20393;-69
2023/06/27 01:41:12;;;;;;;4.80;1.70;;;26.40;46.20;;;;;;5051281;28;20449;-68
2023/06/27 01:43:40;;;;;;;2.93;2.00;;;26.30;46.00;;;;;;5052502;28;20405;-67
2023/06/27 01:46:07;;;;;;;3.00;1.67;;;26.30;45.90;;;;;;5054929;28;20806;-68
2023/06/27 01:48:33;;;;;;;3.90;2.10;;;26.30;45.80;;;;;;5054877;28;20460;-68
2023/06/27 01:50:59;;;;;;;4.83;1.90;;;26.30;45.70;;;;;;5054771;28;20441;-68
2023/06/27 01:53:24;;;;;;;4.20;1.60;;;26.30;45.70;;;;;;5054870;28;20446;-68
2023/06/27 01:55:50;;;;;;;2.97;1.80;;;26.30;45.50;;;;;;5054773;28;20195;-69
2023/06/27 01:58:16;;;;;;;1.80;1.47;;;26.30;45.40;;;;;;5053454;28;20191;-68
2023/06/27 02:00:43;;;;;;;2.17;1.53;;;26.30;45.40;;;;;;5054676;28;20210;-68
2023/06/27 02:03:08;;;;;;;2.53;1.60;;;26.30;45.40;;;;;;5054634;28;20416;-68
2023/06/27 02:05:34;;;;;;;1.90;1.60;;;26.30;45.40;;;;;;5054573;28;20422;-67
2023/06/27 02:07:59;;;;;;;2.23;1.50;;;26.30;45.50;;;;;;5054605;28;20167;-68
2023/06/27 02:10:25;;;;;;;4.53;1.77;;;26.20;45.30;;;;;;5054599;28;20207;-68
2023/06/27 02:12:50;;;;;;;2.10;1.90;;;26.20;45.40;;;;;;5054465;28;20175;-68
2023/06/27 02:15:16;;;;;;;3.27;1.83;;;26.20;45.30;;;;;;5054415;28;20210;-67
2023/06/27 02:17:42;;;;;;;4.13;2.00;;;26.20;45.40;;;;;;5054367;28;20632;-68
2023/06/27 02:20:08;;;;;;;3.10;1.60;;;26.20;45.30;;;;;;5054268;28;20207;-69
2023/06/27 02:22:33;;;;;;;2.83;1.63;;;26.20;45.20;;;;;;5054271;28;20171;-67
2023/06/27 02:24:59;;;;;;;2.00;1.80;;;26.20;45.30;;;;;;5054133;28;20250;-68
2023/06/27 02:27:25;;;;;;;3.30;1.70;;;26.20;45.40;;;;;;5054203;28;20183;-69
2023/06/27 02:29:50;;;;;;;2.07;1.87;;;26.20;45.30;;;;;;5054101;28;20704;-68
2023/06/27 02:32:16;;;;;;;2.03;1.70;;;26.20;45.40;;;;;;5054087;28;20179;-69
2023/06/27 02:34:41;;;;;;;3.73;1.67;;;26.20;45.30;;;;;;5054301;28;20214;-68
2023/06/27 02:37:07;;;;;;;2.37;1.50;;;26.20;45.10;;;;;;5053967;28;20722;-69
2023/06/27 02:39:32;;;;;;;2.40;1.97;;;26.20;45.10;;;;;;5053866;28;20195;-69
2023/06/27 02:41:58;;;;;;;2.07;1.80;;;26.20;45.10;;;;;;5054136;28;20185;-68
2023/06/27 02:44:23;;;;;;;2.90;1.93;;;26.20;45.10;;;;;;5053830;28;20175;-68
2023/06/27 02:46:49;;;;;;;1.93;1.57;;;26.20;45.10;;;;;;5053796;28;20194;-68
2023/06/27 02:49:15;;;;;;;2.37;1.60;;;26.20;45.10;;;;;;5053623;28;20175;-69
2023/06/27 02:51:40;;;;;;;4.10;2.10;;;26.10;45.00;;;;;;5053771;28;20162;-68
2023/06/27 02:54:06;;;;;;;4.53;1.67;;;26.10;45.10;;;;;;5053427;28;20637;-68
2023/06/27 02:56:32;;;;;;;3.43;1.83;;;26.10;45.00;;;;;;5052673;28;20226;-69
2023/06/27 02:58:57;;;;;;;5.60;1.90;;;26.10;45.00;;;;;;5053668;28;20592;-68
2023/06/27 03:01:23;;;;;;;1.73;1.50;;;26.10;45.10;;;;;;5053507;28;20480;-68
2023/06/27 03:03:48;;;;;;;3.00;1.50;;;26.10;44.90;;;;;;5052208;28;20175;-68
2023/06/27 03:06:14;;;;;;;2.23;1.87;;;26.10;45.00;;;;;;5053446;28;20225;-68
2023/06/27 03:08:40;;;;;;;2.50;1.77;;;26.10;45.00;;;;;;5053432;28;20178;-68
2023/06/27 03:11:06;;;;;;;4.00;2.33;;;26.10;44.80;;;;;;5053364;28;20181;-68
2023/06/27 03:13:31;;;;;;;2.13;1.50;;;26.10;44.90;;;;;;5053629;28;20854;-68
2023/06/27 03:15:57;;;;;;;2.97;1.80;;;26.10;44.90;;;;;;5053516;28;20226;-69
2023/06/27 03:18:23;;;;;;;2.97;1.70;;;26.10;44.90;;;;;;5053254;28;20549;-68
2023/06/27 03:20:48;;;;;;;3.50;2.00;;;26.10;44.80;;;;;;5051823;28;20238;-68
2023/06/27 03:23:14;;;;;;;2.40;1.80;;;26.10;44.90;;;;;;5053185;28;20182;-68
2023/06/27 03:25:39;;;;;;;2.20;1.90;;;26.10;44.80;;;;;;5053032;28;20727;-68
2023/06/27 03:28:05;;;;;;;1.80;1.63;;;26.10;45.50;;;;;;5053118;28;20216;-68
2023/06/27 03:30:32;;;;;;;2.30;2.00;;;26.10;44.80;;;;;;5053000;28;20178;-68
2023/06/27 03:32:57;;;;;;;1.70;1.60;;;26.10;44.90;;;;;;5052965;28;20182;-68
2023/06/27 03:35:23;;;;;;;1.70;1.50;;;26.10;44.80;;;;;;5052843;28;20429;-68
2023/06/27 03:37:50;;;;;;;2.10;1.50;;;26.10;44.80;;;;;;5052861;28;20171;-68
2023/06/27 03:40:16;;;;;;;2.00;1.80;;;26.10;44.90;;;;;;5051496;28;20207;-68
2023/06/27 03:42:42;;;;;;;2.50;1.70;;;26.10;44.80;;;;;;5052749;28;20410;-68
2023/06/27 03:45:08;;;;;;;1.80;1.70;;;26.10;44.80;;;;;;5052760;28;20420;-68
2023/06/27 03:47:34;;;;;;;2.77;1.40;;;26.00;44.80;;;;;;5051416;28;20179;-68
2023/06/27 03:50:00;;;;;;;1.90;1.30;;;26.10;44.80;;;;;;5052454;28;20495;-68
2023/06/27 03:52:25;;;;;;;2.70;2.00;;;26.10;44.80;;;;;;5052541;28;20426;-69
2023/06/27 03:54:51;;;;;;;2.50;2.00;;;26.00;44.80;;;;;;5052498;28;20179;-67
2023/06/27 03:57:16;;;;;;;2.30;1.83;;;26.00;44.70;;;;;;5052519;28;20549;-68
2023/06/27 03:59:42;;;;;;;1.70;1.60;;;26.00;44.70;;;;;;5051063;28;20211;-68
2023/06/27 04:02:08;;;;;;;1.77;1.50;;;26.00;44.60;;;;;;5052400;28;20171;-67
2023/06/27 04:04:33;;;;;;;2.77;1.47;;;26.00;44.70;;;;;;5052669;28;20190;-68
2023/06/27 04:06:59;;;;;;;2.93;1.90;;;26.00;44.80;;;;;;5051999;28;20226;-68
2023/06/27 04:09:24;;;;;;;2.03;1.53;;;26.00;44.70;;;;;;5052290;28;20516;-67
2023/06/27 04:11:50;;;;;;;2.10;1.80;;;26.00;44.60;;;;;;5052226;28;20171;-68
2023/06/27 04:14:17;;;;;;;2.57;1.90;;;26.00;44.60;;;;;;5050847;28;20232;-69
2023/06/27 04:16:46;;;;;;;2.10;1.43;;;26.00;44.60;;;;;;5052119;28;20199;-68
2023/06/27 04:19:11;;;;;;;2.23;1.50;;;26.00;44.60;;;;;;5052398;28;20502;-69
2023/06/27 04:21:37;;;;;;;2.53;1.70;;;26.00;44.70;;;;;;5051766;28;21057;-69
2023/06/27 04:24:03;;;;;;;3.20;1.73;;;26.00;44.60;;;;;;5051824;28;20179;-68
2023/06/27 04:26:28;;;;;;;2.40;1.50;;;26.00;44.60;;;;;;5051947;28;20199;-67
2023/06/27 04:28:54;;;;;;;3.53;1.63;;;26.00;44.70;;;;;;5051956;28;20177;-69
2023/06/27 04:31:21;;;;;;;1.93;1.50;;;26.00;44.80;;;;;;5050728;28;20183;-69
2023/06/27 04:33:47;;;;;;;1.97;1.53;;;26.00;45.10;;;;;;5052262;28;20183;-68
2023/06/27 04:36:15;;;;;;;2.90;1.80;;;26.00;45.30;;;;;;5051925;28;21040;-69
2023/06/27 04:38:41;;;;;;;2.53;1.93;;;26.00;45.50;;;;;;5051654;28;20672;-69
2023/06/27 04:41:08;;;;;;;3.63;1.37;;;26.00;45.40;;;;;;5051846;28;20459;-69
2023/06/27 04:43:34;;;;;;;2.07;1.47;;;26.00;45.50;;;;;;5050608;28;20453;-68
2023/06/27 04:46:00;;;;;;;3.27;2.10;;;26.00;46.20;;;;;;5051705;28;20848;-68
2023/06/27 04:48:29;;;;;;;3.00;1.70;;;26.00;46.20;;;;;;5051798;28;20182;-69
2023/06/27 04:50:55;;;;;;;3.00;1.80;;;26.00;45.60;;;;;;5050341;28;20534;-69
2023/06/27 04:53:21;;;;;;;3.20;1.80;;;26.00;45.60;;;;;;5051765;28;20440;-68
2023/06/27 04:55:48;;;;;;;3.57;1.80;;;26.00;45.60;;;;;;5051079;28;20452;-69
2023/06/27 04:58:14;;;;;;;2.77;1.80;;;26.00;45.60;;;;;;5051428;28;20519;-69
2023/06/27 05:00:39;;;;;;;2.33;1.40;;;26.00;45.60;;;;;;5051663;28;20918;-69
2023/06/27 05:03:05;;;;;;;3.30;1.63;;;26.00;45.60;;;;;;5051926;28;20492;-69
2023/06/27 05:05:34;;;;;;;3.53;1.63;;;26.00;45.50;;;;;;5051588;28;20725;-69
2023/06/27 05:08:06;;;;;;;2.00;1.70;;;26.00;45.50;;;;;;5051587;28;20268;-67
2023/06/27 05:10:33;;;;;;;2.50;1.50;;;26.00;45.60;;;;;;5051665;28;20421;-66
2023/06/27 05:12:59;;;;;;;2.10;1.53;;;26.00;45.60;;;;;;5051560;28;20455;-66
2023/06/27 05:15:25;;;;;;;2.60;2.00;;;26.00;45.70;;;;;;5051383;28;20433;-66
2023/06/27 05:18:06;;;;;;;3.07;2.20;;;26.00;45.70;;;;;;5051639;28;20405;-66
2023/06/27 05:20:31;;;;;;;2.33;1.70;;;26.00;45.80;;;;;;5055488;28;20209;-66
2023/06/27 05:22:57;;;;;;;3.00;1.57;;;26.00;45.80;;;;;;5054129;28;20410;-66
2023/06/27 05:25:23;;;;;;;2.17;1.77;;;26.00;45.80;;;;;;5053999;28;20245;-65
2023/06/27 05:27:48;;;;;;;6.67;1.90;;;26.10;45.80;;;;;;5055654;28;20174;-66
2023/06/27 05:30:14;;;;;;;2.67;1.50;;;26.00;45.70;;;;;;5055311;28;20636;-66
2023/06/27 05:32:40;;;;;;;3.00;1.60;;;26.00;45.90;;;;;;5055446;28;20593;-63
2023/06/27 05:35:06;;;;;;;3.07;1.73;;;26.00;46.40;;;;;;5055360;28;20413;-66
2023/06/27 05:37:31;;;;;;;3.50;1.80;;;26.00;45.80;;;;;;5055274;28;20206;-65
2023/06/27 05:39:57;;;;;;;3.90;1.80;;;26.00;45.90;;;;;;5054983;28;20529;-66
2023/06/27 05:42:22;;;;;;;2.80;1.83;;;26.00;45.90;;;;;;5055112;28;20698;-65
2023/06/27 05:44:48;;;;;;;2.07;1.43;;;26.00;45.90;;;;;;5055025;28;20209;-64
2023/06/27 05:47:14;;;;;;;2.20;1.40;;;26.00;45.90;;;;;;5054905;28;20258;-65
2023/06/27 05:49:39;;;;;;;1.70;1.60;;;26.10;46.00;;;;;;5054860;28;20270;-65
2023/06/27 05:52:05;;;;;;;1.70;1.40;;;26.10;46.00;;;;;;5055208;28;20179;-66
2023/06/27 05:54:30;;;;;;;2.23;1.60;;;26.10;45.90;;;;;;5054807;28;20171;-66
2023/06/27 05:56:56;;;;;;;2.97;1.70;;;26.10;46.10;;;;;;5054708;28;20199;-66
2023/06/27 05:59:22;;;;;;;2.43;1.70;;;26.10;46.00;;;;;;5054650;28;20176;-66
2023/06/27 06:01:47;;;;;;;2.60;1.53;;;26.00;45.90;;;;;;5054940;28;20229;-65
2023/06/27 06:04:13;;;;;;;3.07;1.40;;;26.10;46.00;;;;;;5054688;28;20229;-66
2023/06/27 06:06:38;;;;;;;2.30;1.43;;;26.10;46.00;;;;;;5054807;28;20290;-67
2023/06/27 06:09:05;;;;;;;3.07;1.90;;;26.10;46.00;;;;;;5054466;28;20183;-66
2023/06/27 06:11:34;;;;;;;3.20;1.80;;;26.10;45.90;;;;;;5054526;28;20178;-67
2023/06/27 06:14:01;;;;;;;2.23;1.30;;;26.10;45.90;;;;;;5054478;28;20418;-66
2023/06/27 06:16:27;;;;;;;1.73;1.30;;;26.10;45.70;;;;;;5054685;28;20501;-65
2023/06/27 06:18:53;;;;;;;2.67;1.70;;;26.10;45.60;;;;;;5054392;28;20500;-65
2023/06/27 06:21:19;;;;;;;2.33;1.30;;;26.10;45.60;;;;;;5054255;28;20552;-65
2023/06/27 06:23:44;;;;;;;2.30;1.80;;;26.10;45.60;;;;;;5054323;28;20217;-66
2023/06/27 06:26:10;;;;;;;1.57;1.30;;;26.10;45.70;;;;;;5054221;28;20202;-64
2023/06/27 06:28:36;;;;;;;2.17;1.50;;;26.10;45.70;;;;;;5054536;28;20175;-67
2023/06/27 06:31:01;;;;;;;1.73;1.40;;;26.10;45.60;;;;;;5053970;28;20175;-66
2023/06/27 06:33:27;;;;;;;2.07;1.80;;;26.10;45.70;;;;;;5052770;28;20214;-67
2023/06/27 06:35:53;;;;;;;2.27;1.57;;;26.10;45.80;;;;;;5054180;28;20194;-66
2023/06/27 06:38:18;;;;;;;2.60;2.40;;;26.10;45.90;;;;;;5054063;28;20903;-66
2023/06/27 06:40:44;;;;;;;2.00;1.60;;;26.10;45.80;;;;;;5054278;28;20210;-66
2023/06/27 06:43:10;;;;;;;2.40;1.70;;;26.10;45.80;;;;;;5053984;28;20714;-64
2023/06/27 06:45:35;;;;;;;2.20;1.80;;;26.10;45.80;;;;;;5052550;28;20194;-65
2023/06/27 06:48:01;;;;;;;4.37;1.90;;;26.10;45.70;;;;;;5053917;28;20182;-66
2023/06/27 06:50:26;;;;;;;2.37;1.77;;;26.10;45.70;;;;;;5053705;28;20545;-65
2023/06/27 06:52:52;;;;;;;2.30;1.60;;;26.10;45.80;;;;;;5053879;28;20175;-65
2023/06/27 06:55:18;;;;;;;1.67;1.50;;;26.10;45.90;;;;;;5053749;28;20195;-65
2023/06/27 06:57:43;;;;;;;2.30;1.77;;;26.10;45.90;;;;;;5053687;28;20549;-66
2023/06/27 07:00:09;;;;;;;2.70;1.70;;;26.10;45.90;;;;;;5053516;28;20203;-64
2023/06/27 07:02:35;;;;;;;1.60;1.47;;;26.10;45.90;;;;;;5053708;28;20182;-65
2023/06/27 07:05:01;;;;;;;2.00;1.50;;;26.10;45.90;;;;;;5053564;28;20440;-66
2023/06/27 07:07:27;;;;;;;2.10;1.73;;;26.10;45.90;;;;;;5053512;28;20175;-65
2023/06/27 07:09:53;;;;;;;1.70;1.60;;;26.10;45.90;;;;;;5053471;28;20194;-65
2023/06/27 07:12:18;;;;;;;1.90;1.60;;;26.10;46.00;;;;;;5053476;28;20410;-66
2023/06/27 07:14:44;;;;;;;1.47;1.20;;;26.10;45.80;;;;;;5053338;28;20186;-66
2023/06/27 07:17:09;;;;;;;1.80;1.47;;;26.10;45.70;;;;;;5053213;28;20195;-66
2023/06/27 07:19:35;;;;;;;1.67;1.43;;;26.10;45.70;;;;;;5053160;28;20182;-66
2023/06/27 07:22:01;;;;;;;3.30;1.73;;;26.10;45.70;;;;;;5053178;28;20171;-66
2023/06/27 07:24:26;;;;;;;1.70;1.27;;;26.10;46.20;;;;;;5053443;28;20183;-65
2023/06/27 07:26:52;;;;;;;2.53;1.40;;;26.10;45.50;;;;;;5053016;28;20664;-66
2023/06/27 07:29:17;;;;;;;2.17;1.67;;;26.10;45.50;;;;;;5053396;28;20220;-66
2023/06/27 07:31:43;;;;;;;2.80;1.77;;;26.10;45.70;;;;;;5053096;28;20650;-66
2023/06/27 07:34:09;;;;;;;3.00;1.40;;;26.10;45.60;;;;;;5053017;28;20189;-66
2023/06/27 07:36:35;;;;;;;2.00;1.70;;;26.10;45.50;;;;;;5052834;28;20668;-65
2023/06/27 07:39:00;;;;;;;2.33;1.50;;;26.10;45.40;;;;;;5053199;28;20640;-66
2023/06/27 07:41:28;;;;;;;2.13;1.50;;;26.10;45.50;;;;;;5052129;28;20464;-66
2023/06/27 07:43:54;;;;;;;2.63;1.90;;;26.10;45.40;;;;;;5052773;28;20163;-66
2023/06/27 07:46:20;;;;;;;3.27;1.97;;;26.10;45.50;;;;;;5052650;28;20434;-66
2023/06/27 07:48:45;;;;;;;5.13;1.73;;;26.10;45.20;;;;;;5052693;28;20171;-66
2023/06/27 07:51:11;;;;;;;2.13;1.57;;;26.10;45.30;;;;;;5052589;28;20199;-65
2023/06/27 07:53:36;;;;;;;2.50;1.50;;;26.10;45.10;;;;;;5052593;28;20186;-66
2023/06/27 07:56:02;;;;;;;2.00;1.53;;;26.10;45.20;;;;;;5051274;28;20210;-66
2023/06/27 07:58:27;;;;;;;2.13;1.93;;;26.10;45.20;;;;;;5053071;28;20648;-66
2023/06/27 08:00:54;;;;;;;2.43;1.50;;;26.10;45.30;;;;;;5052456;28;20268;-66
2023/06/27 08:03:20;;;;;;;2.57;1.50;;;26.10;45.20;;;;;;5052828;28;20179;-66
2023/06/27 08:05:45;;;;;;;3.23;1.40;;;26.10;45.30;;;;;;5052295;28;20421;-67
2023/06/27 08:08:11;;;;;;;1.97;1.57;;;26.10;45.10;;;;;;5052394;28;20179;-64
2023/06/27 08:10:36;;;;;;;1.60;1.30;;;26.10;45.10;;;;;;5052359;28;20174;-66
2023/06/27 08:13:02;;;;;;;2.17;1.50;;;26.10;45.10;;;;;;5052316;28;20523;-65
2023/06/27 08:15:28;;;;;;;2.43;1.50;;;26.10;45.20;;;;;;5052532;28;20244;-67
2023/06/27 08:17:53;;;;;;;2.40;1.50;;;26.10;45.40;;;;;;5052585;28;20179;-65
2023/06/27 08:20:19;;;;;;;1.77;1.20;;;26.10;45.60;;;;;;5052147;28;20198;-66
2023/06/27 08:22:44;;;;;;;2.30;1.40;;;26.10;45.80;;;;;;5052261;28;20253;-66
2023/06/27 08:25:10;;;;;;;2.03;1.70;;;26.10;45.70;;;;;;5052123;28;20182;-66
2023/06/27 08:27:36;;;;;;;2.63;1.50;;;26.10;46.20;;;;;;5052137;28;20632;-66
2023/06/27 08:30:01;;;;;;;1.60;1.10;;;26.10;45.60;;;;;;5052039;28;20255;-66
2023/06/27 08:32:27;;;;;;;2.13;1.30;;;26.10;45.50;;;;;;5052003;28;20296;-65
2023/06/27 08:34:52;;;;;;;2.03;1.50;;;26.10;45.40;;;;;;5051975;28;20552;-67
2023/06/27 08:37:18;;;;;;;2.83;1.50;;;26.10;45.50;;;;;;5050651;28;20178;-66
2023/06/27 08:39:51;;;;;;;1.80;1.43;;;26.10;45.40;;;;;;5051800;28;20202;-66
2023/06/27 08:42:17;;;;;;;2.30;1.47;;;26.10;45.30;;;;;;5051959;28;20163;-66
2023/06/27 08:44:43;;;;;;;1.47;1.37;;;26.10;45.20;;;;;;5051850;28;20405;-65
2023/06/27 08:47:11;;;;;;;1.60;1.43;;;26.10;45.00;;;;;;5051673;28;20476;-65
2023/06/27 08:49:40;;;;;;;1.80;1.40;;;26.10;45.10;;;;;;5051867;28;20633;-66
2023/06/27 08:52:11;;;;;;;2.30;1.60;;;26.10;45.30;;;;;;5052302;28;20408;-66
2023/06/27 08:54:44;;;;;;;2.37;1.43;;;26.10;45.30;;;;;;5055976;28;20398;-66
2023/06/27 08:57:11;;;;;;;1.40;1.20;;;26.10;45.50;;;;;;5056097;28;20508;-66
2023/06/27 08:59:37;;;;;;;1.90;1.50;;;26.10;45.90;;;;;;5056228;28;20475;-66
2023/06/27 09:02:05;;;;;;;1.70;1.33;;;26.10;46.20;;;;;;5056247;28;20496;-66
2023/06/27 09:04:33;;;;;;;1.93;1.27;;;26.10;47.00;;;;;;5055853;28;20488;-66
2023/06/27 09:06:59;;;;;;;2.40;1.50;;;26.10;46.70;;;;;;5055729;28;20444;-65
2023/06/27 09:09:27;;;;;;;1.90;1.67;;;26.10;46.90;;;;;;5055858;28;20409;-66
2023/06/27 09:11:53;;;;;;;1.93;1.33;;;26.10;47.00;;;;;;5055743;28;20412;-66
2023/06/27 09:14:19;;;;;;;1.83;1.50;;;26.10;47.10;;;;;;5055627;28;20444;-66
2023/06/27 09:16:45;;;;;;;1.57;1.43;;;26.20;47.20;;;;;;5055611;28;20468;-66
2023/06/27 09:19:10;;;;;;;1.30;1.00;;;26.10;47.20;;;;;;5037940;28;20186;-66
2023/06/27 09:21:37;;;;;;;2.10;1.40;;;26.20;47.40;;;;;;5055808;28;20540;-66
2023/06/27 09:24:13;;;;;;;1.83;1.10;;;26.20;47.40;;;;;;5055488;28;20199;-67
2023/06/27 09:26:39;;;;;;;1.90;1.60;;;26.20;47.40;;;;;;5055501;28;20791;-66
2023/06/27 09:29:05;;;;;;;2.93;1.57;;;26.20;47.20;;;;;;5054007;28;20420;-65
2023/06/27 09:31:32;;;;;;;2.07;1.30;;;26.20;47.30;;;;;;5055192;28;20221;-66
2023/06/27 09:34:09;;;;;;;2.77;1.60;;;26.20;47.30;;;;;;5055159;28;20175;-65
2023/06/27 09:36:36;;;;;;;1.63;1.30;;;26.20;47.30;;;;;;5055115;28;20439;-66
2023/06/27 09:39:03;;;;;;;1.57;1.23;;;26.20;47.20;;;;;;5055182;28;20926;-66
2023/06/27 09:41:49;;;;;;;2.47;1.13;;;26.20;47.20;;;;;;5055293;28;20815;-66
2023/06/27 09:44:23;;;;;;;2.53;1.17;;;26.30;47.20;;;;;;5055108;28;20394;-65
2023/06/27 09:46:50;;;;;;;1.50;1.10;;;26.30;47.30;;;;;;5054949;28;20424;-65
2023/06/27 09:49:16;;;;;;;1.50;1.20;;;26.30;47.30;;;;;;5054789;28;20421;-66
2023/06/27 09:51:47;;;;;;;3.73;1.77;;;26.30;47.20;;;;;;5054975;28;20406;-66
2023/06/27 09:54:13;;;;;;;1.60;1.30;;;26.30;47.20;;;;;;5053527;28;20422;-66
2023/06/27 09:56:38;;;;;;;2.07;1.70;;;26.30;47.10;;;;;;5054724;28;20437;-65
2023/06/27 09:59:11;;;;;;;2.73;1.40;;;26.30;47.10;;;;;;5054863;28;20760;-66
2023/06/27 10:01:38;;;;;;;1.70;1.40;;;26.30;47.10;;;;;;5054623;28;20201;-66
2023/06/27 10:04:05;;;;;;;1.63;1.10;;;26.30;47.10;;;;;;5054021;28;20406;-67
2023/06/27 10:06:31;;;;;;;2.00;1.40;;;26.40;47.20;;;;;;5053360;28;20433;-66
2023/06/27 10:08:57;;;;;;;1.77;1.40;;;26.30;47.10;;;;;;5054651;28;20424;-64
2023/06/27 10:11:24;;;;;;;1.40;1.20;;;26.40;47.10;;;;;;5054643;28;20832;-65
2023/06/27 10:13:50;;;;;;;1.60;1.50;;;26.40;47.10;;;;;;5054699;28;20459;-66
2023/06/27 10:16:17;;;;;;;2.90;1.70;;;26.40;47.00;;;;;;5054471;28;20441;-66
2023/06/27 10:18:43;;;;;;;1.63;1.20;;;26.40;47.00;;;;;;5054540;28;20401;-66
2023/06/27 10:21:10;;;;;;;2.07;1.17;;;26.40;47.00;;;;;;5054369;28;20480;-66
2023/06/27 10:23:37;;;;;;;2.27;1.50;;;26.40;47.00;;;;;;5054390;28;20178;-65
2023/06/27 10:26:03;;;;;;;1.70;1.30;;;26.40;46.90;;;;;;5054461;28;20519;-66
2023/06/27 10:28:33;;;;;;;1.60;1.40;;;26.40;46.90;;;;;;5054258;28;21065;-65
2023/06/27 10:30:58;;;;;;;1.80;1.27;;;26.40;46.90;;;;;;5054222;28;20418;-66
2023/06/27 10:33:31;;;;;;;2.30;1.60;;;26.40;46.70;;;;;;5054159;28;20508;-66
2023/06/27 10:36:03;;;;;;;3.33;1.60;;;26.40;46.80;;;;;;5054074;28;20695;-66
2023/06/27 10:38:36;;;;;;;1.90;1.30;;;26.40;46.70;;;;;;5054034;28;20414;-66
2023/06/27 10:41:09;;;;;;;2.93;1.30;;;26.40;46.70;;;;;;5053915;28;20464;-66
2023/06/27 10:43:51;;;;;;;1.90;1.37;;;26.40;46.70;;;;;;5054290;28;20398;-66
2023/06/27 10:46:26;;;;;;;1.90;1.30;;;26.40;46.60;;;;;;5053876;28;20464;-66
2023/06/27 10:49:00;;;;;;;2.03;1.60;;;26.40;46.70;;;;;;5054161;28;20397;-66
2023/06/27 10:51:59;;;;;;;2.80;1.37;;;26.40;46.70;;;;;;5053930;28;20451;-67
2023/06/27 10:54:24;;;;;;;1.70;1.30;;;26.40;46.60;;;;;;5053579;28;20408;-66
2023/06/27 10:56:53;;;;;;;3.77;1.70;;;26.40;46.70;;;;;;5053636;28;20421;-66
2023/06/27 10:59:22;;;;;;;2.63;1.93;;;26.40;46.60;;;;;;5053647;28;20171;-66
2023/06/27 11:01:52;;;;;;;3.57;2.50;;;26.40;46.60;;;;;;5053675;28;20460;-65
2023/06/27 11:04:25;;;;;;;5.73;3.13;;;26.40;46.60;;;;;;5053604;28;20410;-65
2023/06/27 11:06:58;;;;;;;9.33;5.23;;;26.40;46.60;;;;;;5053559;28;20973;-65
2023/06/27 11:09:24;;;;;;;10.17;4.97;;;26.40;46.50;;;;;;5052416;28;20902;-65
2023/06/27 11:12:07;;;;;;;13.63;6.57;;;26.40;46.50;;;;;;5053538;28;20787;-65
2023/06/27 11:14:44;;;;;;;15.80;8.27;;;26.40;46.50;;;;;;5053515;28;20190;-65
2023/06/27 11:17:11;;;;;;;36.13;17.37;;;26.40;46.60;;;;;;5052314;28;20457;-66
2023/06/27 11:19:38;;;;;;;37.37;19.27;;;26.40;46.60;;;;;;5053462;28;20437;-65
2023/06/27 11:22:04;;;;;;;58.03;29.17;;;26.40;46.60;;;;;;5053333;28;20539;-65
2023/06/27 11:24:30;;;;;;;56.07;27.67;;;26.40;46.60;;;;;;5053243;28;20421;-65
2023/06/27 11:26:57;;;;;;;74.80;32.73;;;26.40;46.60;;;;;;5053157;28;20448;-65
2023/06/27 11:29:23;;;;;;;84.50;37.67;;;26.40;46.60;;;;;;5053427;28;20966;-65
2023/06/27 11:31:49;;;;;;;104.27;45.67;;;26.40;46.70;;;;;;5053026;28;20425;-65
2023/06/27 11:34:16;;;;;;;72.47;39.73;;;26.40;46.70;;;;;;5053041;28;20421;-65
2023/06/27 11:36:43;;;;;;;72.83;37.97;;;26.40;46.60;;;;;;5053049;28;20440;-65
2023/06/27 11:39:13;;;;;;;70.37;37.80;;;26.40;46.70;;;;;;5052966;28;20433;-64
2023/06/27 11:41:43;;;;;;;64.87;34.77;;;26.40;46.70;;;;;;5052648;28;20452;-66
2023/06/27 11:44:09;;;;;;;68.03;34.37;;;26.50;46.80;;;;;;5052891;28;20414;-65
2023/06/27 11:46:49;;;;;;;75.50;34.93;;;26.40;46.80;;;;;;5052820;28;20433;-65
2023/06/27 11:49:16;;;;;;;71.90;32.23;;;26.40;46.70;;;;;;5052675;28;20441;-65
2023/06/27 11:51:42;;;;;;;55.23;31.17;;;26.40;46.70;;;;;;5053073;28;20418;-66
2023/06/27 11:54:08;;;;;;;62.47;30.20;;;26.50;46.70;;;;;;5052980;28;20444;-64
2023/06/27 11:56:37;;;;;;;44.60;25.80;;;26.40;46.60;;;;;;5052073;28;20429;-66
2023/06/27 11:59:04;;;;;;;49.87;25.83;;;26.40;46.60;;;;;;5052422;28;20836;-65
2023/06/27 12:01:33;;;;;;;40.03;22.37;;;26.40;46.60;;;;;;5052409;28;20510;-65
2023/06/27 12:03:59;;;;;;;36.43;20.33;;;26.40;46.60;;;;;;5052493;28;20760;-66
2023/06/27 12:06:26;;;;;;;36.80;18.33;;;26.40;46.60;;;;;;5052857;28;20436;-67
2023/06/27 12:08:52;;;;;;;32.67;16.93;;;26.40;46.50;;;;;;5052399;28;20496;-66
2023/06/27 12:11:17;;;;;;;32.93;16.60;;;26.40;46.40;;;;;;5052333;28;20539;-66
2023/06/27 12:13:43;;;;;;;36.50;16.90;;;26.50;46.40;;;;;;5052274;28;20508;-65
2023/06/27 12:16:38;;;;;;;37.00;16.80;;;26.40;46.30;;;;;;5052193;28;20278;-65
2023/06/27 12:19:08;;;;;;;27.00;15.67;;;26.40;46.30;;;;;;5047385;28;20202;-65
2023/06/27 12:21:34;;;;;;;25.83;14.90;;;26.40;46.30;;;;;;5052145;28;20820;-65
2023/06/27 12:24:01;;;;;;;20.90;14.07;;;26.40;46.10;;;;;;5052106;28;20401;-66
2023/06/27 12:26:26;;;;;;;21.00;12.93;;;26.40;46.00;;;;;;5052025;28;20436;-65
2023/06/27 12:29:03;;;;;;;18.37;11.70;;;26.40;45.90;;;;;;5051994;28;20406;-65
2023/06/27 12:31:29;;;;;;;16.67;9.90;;;26.40;45.80;;;;;;5052072;28;20162;-64
2023/06/27 12:33:55;;;;;;;15.80;9.67;;;26.40;45.80;;;;;;5052281;28;20405;-68
2023/06/27 12:36:23;;;;;;;17.60;10.67;;;26.40;45.80;;;;;;5051858;28;20195;-68
2023/06/27 12:38:49;;;;;;;18.77;11.10;;;26.40;45.80;;;;;;5050662;28;20421;-66
2023/06/27 12:41:18;;;;;;;17.53;10.33;;;26.40;45.80;;;;;;5051783;28;20464;-66
2023/06/27 12:43:45;;;;;;;17.03;10.10;;;26.40;45.90;;;;;;5050510;28;20428;-65
2023/06/27 12:46:10;;;;;;;16.70;9.20;;;26.40;45.90;;;;;;5052035;28;20804;-65